Grand Marais, Minnesota
Current Conditions -  °F | °C
As of 5:33 PM on Monday 22 Dec 2014 (Local Time) from KCKC Reporting Station
Moderate Fog Moderate Fog  
Wind Chill: -1°   Ceiling: 200
Heat Index: -1°   Visibility: 0mi
Dew Point: -2°   Wind: 0mph
Humidity: 93%   Direction: NA
Pressure: 29.75"   Gusts: NA
Location:  47.75°N, 90.33°W
Report Text: KCKC 222333Z AUTO 00000KT M1/4SM FZFG OVC002 M01/M02 A2975 RMK AO2
Loading
Personal Weather Stations






























Interactive Weather Map New forecast layout! Learn more

10-Day Weather Forecast

Advertisements
Track Severe Weather on mobile